createdAt,value
2018-08-09T00:00:56.041Z,27.90
2018-08-09T00:03:24.289Z,27.90
2018-08-09T00:05:52.771Z,27.90
2018-08-09T00:08:21.587Z,27.80
2018-08-09T00:10:49.810Z,27.70
2018-08-09T00:13:18.101Z,27.50
2018-08-09T00:15:46.349Z,27.40
2018-08-09T00:18:15.308Z,27.20
2018-08-09T00:20:43.680Z,27.10
2018-08-09T00:23:11.969Z,27.10
2018-08-09T00:25:40.172Z,27.10
2018-08-09T00:28:08.529Z,27.20
2018-08-09T00:30:36.990Z,27.30
2018-08-09T00:33:05.640Z,26.90
2018-08-09T00:35:33.909Z,26.80
2018-08-09T00:38:02.106Z,26.50
2018-08-09T00:40:30.455Z,26.40
2018-08-09T00:42:59.033Z,26.40
2018-08-09T00:45:27.365Z,26.60
2018-08-09T00:47:55.617Z,26.50
2018-08-09T00:50:23.952Z,26.40
2018-08-09T00:52:53.017Z,26.50
2018-08-09T00:55:21.692Z,26.60
2018-08-09T00:57:49.888Z,26.70
2018-08-09T01:00:18.103Z,26.70
2018-08-09T01:02:46.354Z,26.70
2018-08-09T01:05:14.704Z,26.70
2018-08-09T01:07:43.292Z,26.70
2018-08-09T01:10:11.612Z,26.60
2018-08-09T01:12:39.824Z,26.70
2018-08-09T01:15:08.385Z,26.80
2018-08-09T01:17:36.686Z,26.80
2018-08-09T01:20:05.613Z,26.70
2018-08-09T01:22:34.014Z,26.70
2018-08-09T01:25:02.351Z,26.60
2018-08-09T01:27:30.646Z,26.60
2018-08-09T01:29:59.824Z,26.70
2018-08-09T01:32:28.082Z,26.70
2018-08-09T01:34:56.323Z,26.70
2018-08-09T01:37:24.505Z,26.60
2018-08-09T01:39:52.826Z,26.40
2018-08-09T01:42:32.390Z,26.50
2018-08-09T01:45:00.759Z,26.40
2018-08-09T01:47:29.153Z,26.40
2018-08-09T01:49:57.338Z,26.50
2018-08-09T01:52:25.554Z,26.40
2018-08-09T01:54:54.116Z,26.30
2018-08-09T01:57:22.801Z,26.20
2018-08-09T01:59:51.296Z,26.20
2018-08-09T02:02:19.569Z,26.20
2018-08-09T02:04:47.880Z,26.10
2018-08-09T02:07:16.110Z,26.10
2018-08-09T02:09:44.342Z,26.00
2018-08-09T02:12:12.537Z,26.00
2018-08-09T02:14:40.838Z,26.00
2018-08-09T02:17:09.168Z,26.00
2018-08-09T02:19:37.402Z,26.00
2018-08-09T02:22:05.604Z,26.00
2018-08-09T02:24:33.912Z,26.00
2018-08-09T02:27:02.101Z,25.90
2018-08-09T02:29:30.440Z,25.80
2018-08-09T02:31:58.780Z,26.00
2018-08-09T02:34:27.001Z,25.90
2018-08-09T02:36:55.195Z,25.50
2018-08-09T02:39:23.403Z,25.30
2018-08-09T02:41:51.717Z,25.50
2018-08-09T02:44:19.942Z,25.40
2018-08-09T02:46:48.248Z,25.50
2018-08-09T02:49:16.414Z,25.40
2018-08-09T02:51:44.737Z,25.20
2018-08-09T02:54:13.030Z,25.20
2018-08-09T02:56:41.342Z,25.30
2018-08-09T02:59:09.578Z,25.50
2018-08-09T03:01:37.929Z,25.50
2018-08-09T03:04:06.686Z,25.60
2018-08-09T03:06:34.888Z,25.50
2018-08-09T03:09:03.169Z,25.20
2018-08-09T03:11:31.401Z,25.30
2018-08-09T03:13:59.617Z,25.20
2018-08-09T03:16:27.830Z,25.20
2018-08-09T03:18:56.017Z,25.10
2018-08-09T03:21:24.245Z,24.90
2018-08-09T03:23:52.618Z,25.10
2018-08-09T03:26:20.814Z,25.00
2018-08-09T03:28:49.080Z,25.10
2018-08-09T03:31:17.273Z,25.10
2018-08-09T03:33:45.548Z,25.00
2018-08-09T03:36:13.853Z,24.80
2018-08-09T03:38:42.061Z,24.70
2018-08-09T03:41:10.300Z,24.90
2018-08-09T03:43:38.473Z,25.00
2018-08-09T03:46:07.034Z,25.00
2018-08-09T03:48:35.240Z,25.10
2018-08-09T03:51:03.498Z,25.10
2018-08-09T03:53:31.769Z,25.20
2018-08-09T03:56:00.013Z,25.20
2018-08-09T03:58:28.228Z,25.20
2018-08-09T04:00:56.420Z,25.10
2018-08-09T04:03:24.637Z,25.10
2018-08-09T04:05:53.533Z,25.10
2018-08-09T04:08:22.198Z,25.10
2018-08-09T04:10:50.404Z,25.10
2018-08-09T04:13:18.617Z,25.10
2018-08-09T04:15:46.777Z,25.10
2018-08-09T04:18:15.222Z,25.10
2018-08-09T04:20:43.708Z,25.10
2018-08-09T04:23:11.895Z,25.20
2018-08-09T04:25:40.122Z,25.30
2018-08-09T04:28:08.632Z,25.30
2018-08-09T04:30:36.881Z,25.30
2018-08-09T04:33:05.227Z,25.30
2018-08-09T04:35:33.447Z,25.30
2018-08-09T04:38:01.813Z,25.30
2018-08-09T04:40:30.018Z,25.30
2018-08-09T04:42:58.297Z,25.40
2018-08-09T04:45:26.613Z,25.40
2018-08-09T04:47:54.989Z,25.30
2018-08-09T04:50:23.389Z,25.40
2018-08-09T04:52:51.658Z,25.50
2018-08-09T04:55:19.865Z,25.40
2018-08-09T04:57:48.042Z,25.40
2018-08-09T05:00:16.246Z,25.40
2018-08-09T05:02:44.514Z,25.20
2018-08-09T05:05:12.714Z,25.20
2018-08-09T05:07:41.001Z,25.10
2018-08-09T05:10:09.258Z,25.10
2018-08-09T05:12:38.486Z,25.10
2018-08-09T05:15:06.749Z,25.00
2018-08-09T05:17:35.234Z,25.10
2018-08-09T05:20:03.714Z,25.30
2018-08-09T05:22:31.975Z,25.50
2018-08-09T05:25:00.358Z,25.50
2018-08-09T05:27:28.775Z,25.50
2018-08-09T05:29:57.067Z,25.80
2018-08-09T05:32:25.236Z,25.80
2018-08-09T05:34:53.495Z,25.90
2018-08-09T05:37:21.828Z,26.00
2018-08-09T05:39:50.053Z,26.00
2018-08-09T05:42:18.308Z,26.00
2018-08-09T05:44:46.481Z,26.00
2018-08-09T05:47:14.763Z,25.90
2018-08-09T05:49:42.957Z,25.80
2018-08-09T05:52:11.175Z,25.70
2018-08-09T05:54:39.429Z,25.60
2018-08-09T05:57:07.671Z,25.70
2018-08-09T05:59:35.866Z,25.70
2018-08-09T06:02:04.076Z,25.80
2018-08-09T06:04:32.383Z,25.90
2018-08-09T06:07:00.997Z,26.00
2018-08-09T06:09:29.217Z,26.20
2018-08-09T06:11:57.398Z,26.20
2018-08-09T06:14:25.595Z,26.10
2018-08-09T06:16:53.799Z,25.90
2018-08-09T06:19:25.069Z,25.90
2018-08-09T06:21:53.387Z,26.00
2018-08-09T06:24:21.905Z,26.10
2018-08-09T06:26:50.081Z,26.20
2018-08-09T06:29:18.277Z,26.40
2018-08-09T06:31:46.625Z,26.60
2018-08-09T06:34:14.918Z,26.80
2018-08-09T06:36:43.937Z,26.90
2018-08-09T06:39:12.097Z,27.00
2018-08-09T06:41:40.289Z,27.20
2018-08-09T06:44:08.620Z,27.10
2018-08-09T06:46:36.901Z,27.00
2018-08-09T06:49:05.226Z,27.20
2018-08-09T06:51:33.453Z,27.40
2018-08-09T06:54:01.669Z,27.40
2018-08-09T06:56:29.849Z,27.30
2018-08-09T06:58:58.169Z,27.20
2018-08-09T07:01:26.422Z,27.30
2018-08-09T07:03:54.635Z,27.40
2018-08-09T07:06:23.415Z,27.20
2018-08-09T07:08:51.710Z,27.30
2018-08-09T07:11:19.930Z,27.40
2018-08-09T07:31:06.524Z,32.20
2018-08-09T07:33:34.829Z,32.90
2018-08-09T07:36:03.044Z,33.50
2018-08-09T07:38:31.284Z,33.60
2018-08-09T07:40:59.485Z,33.40
2018-08-09T07:43:27.751Z,33.10
2018-08-09T07:45:55.917Z,32.90
2018-08-09T07:48:24.143Z,33.20
2018-08-09T07:50:52.365Z,34.20
2018-08-09T07:53:20.553Z,35.00
2018-08-09T07:55:48.894Z,36.50
2018-08-09T07:58:17.393Z,37.30
2018-08-09T08:00:46.111Z,38.50
2018-08-09T08:03:14.530Z,40.00
2018-08-09T08:05:42.869Z,40.80
2018-08-09T08:08:11.037Z,40.70
2018-08-09T08:10:39.361Z,41.50
2018-08-09T08:13:14.224Z,42.30
2018-08-09T08:15:42.468Z,43.20
2018-08-09T08:18:10.684Z,43.90
2018-08-09T08:20:38.871Z,44.90
2018-08-09T08:23:07.151Z,44.60
2018-08-09T08:25:35.392Z,44.60
2018-08-09T08:28:03.676Z,44.60
2018-08-09T08:30:31.943Z,44.60
2018-08-09T08:33:01.201Z,44.80
2018-08-09T08:35:29.606Z,45.20
2018-08-09T08:37:57.808Z,46.00
2018-08-09T08:40:26.142Z,47.00
2018-08-09T08:42:54.410Z,46.40
2018-08-09T08:45:22.832Z,46.50
2018-08-09T08:47:51.146Z,47.50
2018-08-09T08:50:19.425Z,47.30
2018-08-09T08:52:47.699Z,47.50
2018-08-09T08:55:16.017Z,47.40
2018-08-09T08:57:44.273Z,48.50
2018-08-09T09:00:13.190Z,49.00
2018-08-09T09:02:41.420Z,49.10
2018-08-09T09:05:11.435Z,49.30
2018-08-09T09:07:39.678Z,49.80
2018-08-09T09:10:09.675Z,50.10
2018-08-09T09:12:38.233Z,50.20
2018-08-09T09:15:08.769Z,50.60
2018-08-09T09:17:37.190Z,50.60
2018-08-09T09:20:08.269Z,50.80
2018-08-09T09:22:36.580Z,51.00
2018-08-09T09:25:05.520Z,50.20
2018-08-09T09:27:33.802Z,50.00
2018-08-09T09:30:02.072Z,50.60
2018-08-09T09:32:30.383Z,51.80
2018-08-09T09:34:59.185Z,50.90
2018-08-09T09:37:27.390Z,51.10
2018-08-09T09:39:55.569Z,50.20
2018-08-09T09:42:24.006Z,49.60
2018-08-09T09:44:52.238Z,49.40
2018-08-09T09:47:20.586Z,49.70
2018-08-09T09:49:48.933Z,50.20
2018-08-09T09:52:17.072Z,50.50
2018-08-09T09:54:45.296Z,50.20
2018-08-09T09:57:13.565Z,49.20
2018-08-09T09:59:41.738Z,50.00
2018-08-09T10:02:10.209Z,49.10
2018-08-09T10:04:38.497Z,48.30
2018-08-09T10:07:06.783Z,48.60
2018-08-09T10:09:34.973Z,48.90
2018-08-09T10:12:03.173Z,49.90
2018-08-09T10:14:31.358Z,51.10
2018-08-09T10:17:00.301Z,50.50
2018-08-09T10:19:28.566Z,50.50
2018-08-09T10:21:56.752Z,50.40
2018-08-09T10:24:24.998Z,50.80
2018-08-09T10:26:53.789Z,51.70
2018-08-09T10:29:22.231Z,51.80
2018-08-09T10:31:50.409Z,51.80
2018-08-09T10:34:18.648Z,50.80
2018-08-09T10:36:46.865Z,48.70
2018-08-09T10:39:15.179Z,49.10
2018-08-09T10:41:44.126Z,50.40
2018-08-09T10:44:12.332Z,50.90
2018-08-09T10:46:40.537Z,50.10
2018-08-09T10:49:08.888Z,49.90
2018-08-09T10:51:37.209Z,49.50
2018-08-09T10:54:05.412Z,50.00
2018-08-09T10:56:33.721Z,49.90
2018-08-09T10:59:02.292Z,50.20
2018-08-09T11:01:30.980Z,50.70
2018-08-09T11:03:59.308Z,51.40
2018-08-09T11:06:27.485Z,51.90
2018-08-09T11:08:55.693Z,53.40
2018-08-09T11:11:23.901Z,53.70
2018-08-09T11:13:52.204Z,53.20
2018-08-09T11:16:20.452Z,53.40
2018-08-09T11:18:48.653Z,54.20
2018-08-09T11:21:16.868Z,54.90
2018-08-09T11:23:45.410Z,54.50
2018-08-09T11:26:13.689Z,53.80
2018-08-09T11:28:41.858Z,54.10
2018-08-09T11:31:10.073Z,54.60
2018-08-09T11:33:38.357Z,54.80
2018-08-09T11:36:06.650Z,54.30
2018-08-09T11:38:34.836Z,54.40
2018-08-09T11:41:09.552Z,53.40
2018-08-09T11:43:37.811Z,52.50
2018-08-09T11:46:06.245Z,52.40
2018-08-09T11:48:34.433Z,52.30
2018-08-09T11:51:02.649Z,52.80
2018-08-09T11:53:31.271Z,53.80
2018-08-09T11:55:59.471Z,54.40
2018-08-09T11:58:27.734Z,54.40
2018-08-09T12:00:55.916Z,53.90
2018-08-09T12:03:24.185Z,53.50
2018-08-09T12:05:53.273Z,52.70
2018-08-09T12:08:21.500Z,52.90
2018-08-09T12:10:50.037Z,52.90
2018-08-09T12:13:18.226Z,52.70
2018-08-09T12:15:46.461Z,53.00
2018-08-09T12:18:15.244Z,53.70
2018-08-09T12:20:43.536Z,54.50
2018-08-09T12:23:11.709Z,54.30
2018-08-09T12:25:39.897Z,53.70
2018-08-09T12:28:08.496Z,53.30
2018-08-09T12:30:36.876Z,52.20
2018-08-09T12:33:06.964Z,52.40
2018-08-09T12:35:35.277Z,52.30
2018-08-09T12:38:03.497Z,53.00
2018-08-09T12:40:31.717Z,52.80
2018-08-09T12:43:00.030Z,51.70
2018-08-09T12:45:28.296Z,51.50
2018-08-09T12:47:56.421Z,51.80
2018-08-09T12:50:24.658Z,52.00
2018-08-09T12:52:52.881Z,52.30
2018-08-09T12:55:21.193Z,51.70
2018-08-09T12:57:49.373Z,52.00
2018-08-09T13:00:17.679Z,50.80
2018-08-09T13:02:45.921Z,49.50
2018-08-09T13:05:14.165Z,48.30
2018-08-09T13:07:42.599Z,48.00
2018-08-09T13:10:12.594Z,47.50
2018-08-09T13:12:40.878Z,46.60
2018-08-09T13:15:11.521Z,44.70
2018-08-09T13:17:39.948Z,44.20
2018-08-09T13:20:10.953Z,43.60
2018-08-09T13:22:39.178Z,42.70
2018-08-09T13:25:07.412Z,43.40
2018-08-09T13:27:35.585Z,43.60
2018-08-09T13:30:04.987Z,43.40
2018-08-09T13:32:40.080Z,43.20
2018-08-09T13:35:08.774Z,43.00
2018-08-09T13:37:37.020Z,42.30
2018-08-09T13:40:06.679Z,41.20
2018-08-09T13:42:34.869Z,40.30
2018-08-09T13:45:03.334Z,39.10
2018-08-09T13:47:31.532Z,39.10
2018-08-09T13:49:59.945Z,39.10
2018-08-09T13:52:28.178Z,38.80
2018-08-09T13:54:56.388Z,39.00
2018-08-09T13:57:24.580Z,39.30
2018-08-09T13:59:52.891Z,39.60
2018-08-09T14:02:21.214Z,39.80
2018-08-09T14:04:49.405Z,39.00
2018-08-09T14:07:17.603Z,38.80
2018-08-09T14:09:46.549Z,39.40
2018-08-09T14:12:14.822Z,40.80
2018-08-09T14:14:43.068Z,42.00
2018-08-09T14:17:11.451Z,42.30
2018-08-09T14:19:39.679Z,43.00
2018-08-09T14:22:08.214Z,43.30
2018-08-09T14:24:36.640Z,43.70
2018-08-09T14:27:04.815Z,44.90
2018-08-09T14:29:33.132Z,46.00
2018-08-09T14:32:01.465Z,47.50
2018-08-09T14:34:29.666Z,49.20
2018-08-09T14:36:57.892Z,49.60
2018-08-09T14:39:26.141Z,49.50
2018-08-09T14:41:54.358Z,49.70
2018-08-09T14:44:22.720Z,50.70
2018-08-09T14:46:51.044Z,51.40
2018-08-09T14:49:19.329Z,50.60
2018-08-09T14:51:47.551Z,49.40
2018-08-09T14:54:16.051Z,48.60
2018-08-09T14:56:45.254Z,49.00
2018-08-09T14:59:13.445Z,48.40
2018-08-09T15:01:41.614Z,48.00
2018-08-09T15:04:09.836Z,47.00
2018-08-09T15:06:38.514Z,46.60
2018-08-09T15:09:08.639Z,46.80
2018-08-09T15:11:36.932Z,46.80
2018-08-09T15:14:06.286Z,47.00
2018-08-09T15:16:34.608Z,47.60
2018-08-09T15:19:02.823Z,47.10
2018-08-09T15:21:31.265Z,46.50
2018-08-09T15:23:59.578Z,46.70
2018-08-09T15:26:27.764Z,46.70
2018-08-09T15:28:55.974Z,45.40
2018-08-09T15:31:24.185Z,44.40
2018-08-09T15:33:59.432Z,43.00
2018-08-09T15:36:27.761Z,41.50
2018-08-09T15:38:55.968Z,39.20
2018-08-09T15:41:24.190Z,37.00
2018-08-09T15:43:52.484Z,35.40
2018-08-09T15:46:20.693Z,34.90
2018-08-09T15:48:48.949Z,34.80
2018-08-09T15:51:17.185Z,34.60
2018-08-09T15:53:45.513Z,34.40
2018-08-09T15:56:14.221Z,34.40
2018-08-09T15:58:42.445Z,34.60
2018-08-09T16:01:10.697Z,35.10
2018-08-09T16:03:38.930Z,34.90
2018-08-09T16:06:07.125Z,34.10
2018-08-09T16:08:35.637Z,33.80
2018-08-09T16:11:03.838Z,33.90
2018-08-09T16:13:32.050Z,33.70
2018-08-09T16:16:00.333Z,33.80
2018-08-09T16:18:28.615Z,34.00
2018-08-09T16:20:57.013Z,34.00
2018-08-09T16:23:25.197Z,34.00
2018-08-09T16:25:53.557Z,33.50
2018-08-09T16:28:22.756Z,33.70
2018-08-09T16:30:50.939Z,33.30
2018-08-09T16:33:19.433Z,33.00
2018-08-09T16:35:47.641Z,33.10
2018-08-09T16:38:15.972Z,32.90
2018-08-09T16:40:44.464Z,32.60
2018-08-09T16:43:12.673Z,32.40
2018-08-09T16:45:40.913Z,32.40
2018-08-09T16:48:09.109Z,32.50
2018-08-09T16:50:37.426Z,32.50
2018-08-09T16:53:05.627Z,32.80
2018-08-09T16:55:33.854Z,32.80
2018-08-09T16:58:02.081Z,33.10
2018-08-09T17:00:30.564Z,32.70
2018-08-09T17:02:58.812Z,32.60
2018-08-09T17:05:27.717Z,31.90
2018-08-09T17:07:56.141Z,31.40
2018-08-09T17:10:25.176Z,31.00
2018-08-09T17:12:53.491Z,30.80
2018-08-09T17:15:23.741Z,30.80
2018-08-09T17:17:52.370Z,30.70
2018-08-09T17:20:22.981Z,30.80
2018-08-09T17:22:51.260Z,31.20
2018-08-09T17:25:19.522Z,31.10
2018-08-09T17:27:48.808Z,31.20
2018-08-09T17:30:21.816Z,31.30
2018-08-09T17:32:50.373Z,31.10
2018-08-09T17:35:19.092Z,30.90
2018-08-09T17:37:47.368Z,31.00
2018-08-09T17:40:21.310Z,30.90
2018-08-09T17:42:50.729Z,30.90
2018-08-09T17:45:20.209Z,30.90
2018-08-09T17:47:48.525Z,31.00
2018-08-09T17:50:16.761Z,30.90
2018-08-09T17:52:45.749Z,30.90
2018-08-09T17:55:15.045Z,31.00
2018-08-09T17:57:44.139Z,30.70
2018-08-09T18:00:15.773Z,30.90
2018-08-09T18:02:44.134Z,30.90
2018-08-09T18:05:12.662Z,30.80
2018-08-09T18:07:40.851Z,30.60
2018-08-09T18:10:18.940Z,30.10
2018-08-09T18:12:47.716Z,29.60
2018-08-09T18:15:16.900Z,29.00
2018-08-09T18:17:45.310Z,28.90
2018-08-09T18:20:16.334Z,28.70
2018-08-09T18:22:45.170Z,28.60
2018-08-09T18:25:14.146Z,28.50
2018-08-09T18:27:42.361Z,28.30
2018-08-09T18:30:13.545Z,28.30
2018-08-09T18:32:41.885Z,28.30
2018-08-09T18:35:11.770Z,28.30
2018-08-09T18:37:40.177Z,28.10
2018-08-09T18:40:11.238Z,27.90
2018-08-09T18:42:40.224Z,28.00
2018-08-09T18:45:09.561Z,27.80
2018-08-09T18:47:38.444Z,27.80
2018-08-09T18:50:14.733Z,27.70
2018-08-09T18:52:43.021Z,27.40
2018-08-09T18:55:11.725Z,27.20
2018-08-09T18:57:40.209Z,27.10
2018-08-09T19:00:14.783Z,27.00
2018-08-09T19:02:43.477Z,26.90
2018-08-09T19:05:11.697Z,26.90
2018-08-09T19:07:39.871Z,27.00
2018-08-09T19:10:10.925Z,27.00
2018-08-09T19:12:39.092Z,27.20
2018-08-09T19:15:08.589Z,27.20
2018-08-09T19:17:37.958Z,27.30
2018-08-09T19:20:08.353Z,27.20
2018-08-09T19:22:36.733Z,27.20
2018-08-09T19:25:06.473Z,27.20
2018-08-09T19:27:34.702Z,27.30
2018-08-09T19:30:03.125Z,27.50
2018-08-09T19:32:31.412Z,27.60
2018-08-09T19:34:59.818Z,27.60
2018-08-09T19:37:28.033Z,27.70
2018-08-09T19:39:56.249Z,27.80
2018-08-09T19:42:24.436Z,27.90
2018-08-09T19:44:52.765Z,28.00
2018-08-09T19:47:21.073Z,28.10
2018-08-09T19:49:49.659Z,28.10
2018-08-09T19:52:17.928Z,28.00
2018-08-09T19:54:46.285Z,28.40
2018-08-09T19:57:14.787Z,28.30
2018-08-09T19:59:42.940Z,28.10
2018-08-09T20:02:11.114Z,28.20
2018-08-09T20:04:39.403Z,28.20
2018-08-09T20:07:08.250Z,28.00
2018-08-09T20:09:36.489Z,27.90
2018-08-09T20:12:05.035Z,27.90
2018-08-09T20:14:33.214Z,27.90
2018-08-09T20:17:01.622Z,28.00
2018-08-09T20:19:30.228Z,27.90
2018-08-09T20:21:58.585Z,28.10
2018-08-09T20:24:26.770Z,28.00
2018-08-09T20:26:54.946Z,28.00
2018-08-09T20:29:23.377Z,28.00
2018-08-09T20:31:51.550Z,28.10
2018-08-09T20:34:19.988Z,27.90
2018-08-09T20:36:48.194Z,27.90
2018-08-09T20:39:16.456Z,28.00
2018-08-09T20:41:44.709Z,28.10
2018-08-09T20:44:12.945Z,28.10
2018-08-09T20:46:41.274Z,28.30
2018-08-09T20:49:09.477Z,28.30
2018-08-09T20:51:37.674Z,28.30
2018-08-09T20:54:05.910Z,28.10
2018-08-09T20:56:34.193Z,28.10
2018-08-09T20:59:02.876Z,28.00
2018-08-09T21:01:31.366Z,27.60
2018-08-09T21:03:59.769Z,27.30
2018-08-09T21:06:27.956Z,27.00
2018-08-09T21:08:56.247Z,26.50
2018-08-09T21:11:24.521Z,26.30
2018-08-09T21:13:52.765Z,26.40
2018-08-09T21:16:20.956Z,26.40
2018-08-09T21:18:49.130Z,26.50
2018-08-09T21:21:17.310Z,26.40
2018-08-09T21:23:45.624Z,26.60
2018-08-09T21:26:13.916Z,26.60
2018-08-09T21:28:42.357Z,26.80
2018-08-09T21:31:10.930Z,26.90
2018-08-09T21:33:39.257Z,27.00
2018-08-09T21:36:08.379Z,26.80
2018-08-09T21:38:36.670Z,26.80
2018-08-09T21:41:04.835Z,26.60
2018-08-09T21:43:33.058Z,26.70
2018-08-09T21:46:01.869Z,26.50
2018-08-09T21:48:30.092Z,26.40
2018-08-09T21:50:58.261Z,26.40
2018-08-09T21:53:26.453Z,26.50
2018-08-09T21:55:54.629Z,26.70
2018-08-09T21:58:22.920Z,26.70
2018-08-09T22:00:58.358Z,26.80
2018-08-09T22:03:29.176Z,26.90
2018-08-09T22:06:03.052Z,27.10
2018-08-09T22:08:36.923Z,27.10
2018-08-09T22:11:10.577Z,27.00
2018-08-09T22:13:45.202Z,27.00
2018-08-09T22:16:18.855Z,27.00
2018-08-09T22:18:52.505Z,27.10
2018-08-09T22:21:26.233Z,27.10
2018-08-09T22:23:54.561Z,26.90
2018-08-09T22:26:22.867Z,26.80
2018-08-09T22:28:51.045Z,26.60
2018-08-09T22:31:19.217Z,26.40
2018-08-09T22:33:47.414Z,26.50
2018-08-09T22:36:15.997Z,26.60
2018-08-09T22:38:44.232Z,26.60
2018-08-09T22:41:12.468Z,26.30
2018-08-09T22:43:40.649Z,26.20
2018-08-09T22:46:08.947Z,26.10
2018-08-09T22:48:37.485Z,26.20
2018-08-09T22:51:05.667Z,26.30
2018-08-09T22:53:33.925Z,26.30
2018-08-09T22:56:02.183Z,26.20
2018-08-09T22:58:30.397Z,26.20
2018-08-09T23:00:59.368Z,26.00
2018-08-09T23:03:27.584Z,26.10
2018-08-09T23:05:55.761Z,26.00
2018-08-09T23:08:24.118Z,26.00
2018-08-09T23:10:52.437Z,26.00
2018-08-09T23:13:20.803Z,26.10
2018-08-09T23:15:48.973Z,26.10
2018-08-09T23:18:17.228Z,26.30
2018-08-09T23:20:45.804Z,26.40
2018-08-09T23:23:14.064Z,26.40
2018-08-09T23:25:42.360Z,26.40
2018-08-09T23:28:10.540Z,26.30
2018-08-09T23:30:38.908Z,26.20
2018-08-09T23:33:07.148Z,26.00
2018-08-09T23:35:35.362Z,26.10
2018-08-09T23:38:03.675Z,25.80
2018-08-09T23:40:32.941Z,25.60
2018-08-09T23:43:01.238Z,25.50
2018-08-09T23:45:29.576Z,25.30
2018-08-09T23:47:57.745Z,25.00
2018-08-09T23:50:26.038Z,24.80
2018-08-09T23:52:54.731Z,24.90
2018-08-09T23:55:23.065Z,24.90
2018-08-09T23:57:51.257Z,24.70
